sensor_id;sensor_type;location;lat;lon;timestamp;pressure;altitude;pressure_sealevel;temperature;humidity
75013;BME280;63567;49.956;20.130;2022-12-08T00:01:12;96613.06;;;1.47;69.39
75013;BME280;63567;49.956;20.130;2022-12-08T00:03:38;96622.09;;;1.42;69.05
75013;BME280;63567;49.956;20.130;2022-12-08T00:06:05;96627.69;;;1.38;69.13
75013;BME280;63567;49.956;20.130;2022-12-08T00:08:49;96621.69;;;1.37;69.26
75013;BME280;63567;49.956;20.130;2022-12-08T00:11:34;96626.88;;;1.37;69.36
75013;BME280;63567;49.956;20.130;2022-12-08T00:13:59;96627.16;;;1.34;69.01
75013;BME280;63567;49.956;20.130;2022-12-08T00:16:25;96628.25;;;1.32;69.01
75013;BME280;63567;49.956;20.130;2022-12-08T00:18:50;96629.91;;;1.33;69.69
75013;BME280;63567;49.956;20.130;2022-12-08T00:21:15;96625.66;;;1.32;69.19
75013;BME280;63567;49.956;20.130;2022-12-08T00:23:41;96627.44;;;1.31;70.07
75013;BME280;63567;49.956;20.130;2022-12-08T00:26:06;96625.16;;;1.28;70.28
75013;BME280;63567;49.956;20.130;2022-12-08T00:28:32;96629.66;;;1.26;70.20
75013;BME280;63567;49.956;20.130;2022-12-08T00:30:58;96634.28;;;1.22;69.84
75013;BME280;63567;49.956;20.130;2022-12-08T00:33:23;96645.22;;;1.16;69.50
75013;BME280;63567;49.956;20.130;2022-12-08T00:35:49;96637.84;;;1.12;70.15
75013;BME280;63567;49.956;20.130;2022-12-08T00:38:14;96639.91;;;1.08;70.79
75013;BME280;63567;49.956;20.130;2022-12-08T00:40:44;96643.59;;;1.06;70.48
75013;BME280;63567;49.956;20.130;2022-12-08T00:43:09;96649.19;;;1.01;70.55
75013;BME280;63567;49.956;20.130;2022-12-08T00:45:34;96642.41;;;1.00;70.37
75013;BME280;63567;49.956;20.130;2022-12-08T00:48:00;96642.66;;;0.97;70.95
75013;BME280;63567;49.956;20.130;2022-12-08T00:50:25;96649.63;;;0.96;71.25
75013;BME280;63567;49.956;20.130;2022-12-08T00:52:50;96644.97;;;0.90;70.61
75013;BME280;63567;49.956;20.130;2022-12-08T00:55:15;96647.69;;;0.89;71.19
75013;BME280;63567;49.956;20.130;2022-12-08T00:57:41;96646.06;;;0.88;71.18
75013;BME280;63567;49.956;20.130;2022-12-08T01:00:06;96649.22;;;0.81;70.98
75013;BME280;63567;49.956;20.130;2022-12-08T01:02:32;96642.78;;;0.76;71.30
75013;BME280;63567;49.956;20.130;2022-12-08T01:04:58;96645.94;;;0.70;71.78
75013;BME280;63567;49.956;20.130;2022-12-08T01:07:23;96649.09;;;0.64;71.60
75013;BME280;63567;49.956;20.130;2022-12-08T01:09:48;96648.00;;;0.66;71.91
75013;BME280;63567;49.956;20.130;2022-12-08T01:12:14;96654.78;;;0.67;71.36
75013;BME280;63567;49.956;20.130;2022-12-08T01:14:39;96652.34;;;0.66;71.85
75013;BME280;63567;49.956;20.130;2022-12-08T01:17:04;96658.75;;;0.61;72.06
75013;BME280;63567;49.956;20.130;2022-12-08T01:19:29;96655.09;;;0.54;73.03
75013;BME280;63567;49.956;20.130;2022-12-08T01:21:55;96653.31;;;0.55;72.22
75013;BME280;63567;49.956;20.130;2022-12-08T01:24:20;96657.53;;;0.56;72.47
75013;BME280;63567;49.956;20.130;2022-12-08T01:26:46;96653.72;;;0.50;72.77
75013;BME280;63567;49.956;20.130;2022-12-08T01:29:13;96661.34;;;0.52;71.91
75013;BME280;63567;49.956;20.130;2022-12-08T01:31:38;96660.91;;;0.56;72.98
75013;BME280;63567;49.956;20.130;2022-12-08T01:34:05;96651.66;;;0.54;73.05
75013;BME280;63567;49.956;20.130;2022-12-08T01:36:31;96664.06;;;0.50;73.61
75013;BME280;63567;49.956;20.130;2022-12-08T01:38:59;96659.72;;;0.51;73.56
75013;BME280;63567;49.956;20.130;2022-12-08T01:41:28;96656.44;;;0.49;73.46
75013;BME280;63567;49.956;20.130;2022-12-08T01:43:55;96653.97;;;0.47;73.77
75013;BME280;63567;49.956;20.130;2022-12-08T01:46:22;96659.44;;;0.44;73.89
75013;BME280;63567;49.956;20.130;2022-12-08T01:48:49;96653.44;;;0.44;74.30
75013;BME280;63567;49.956;20.130;2022-12-08T01:51:16;96649.19;;;0.43;74.24
75013;BME280;63567;49.956;20.130;2022-12-08T01:53:42;96653.97;;;0.37;74.60
75013;BME280;63567;49.956;20.130;2022-12-08T01:56:15;96655.34;;;0.42;74.59
75013;BME280;63567;49.956;20.130;2022-12-08T01:58:46;96651.22;;;0.39;74.42
75013;BME280;63567;49.956;20.130;2022-12-08T02:01:13;96640.47;;;0.44;73.95
75013;BME280;63567;49.956;20.130;2022-12-08T02:03:47;96643.06;;;0.44;73.97
75013;BME280;63567;49.956;20.130;2022-12-08T02:06:16;96649.31;;;0.41;74.64
75013;BME280;63567;49.956;20.130;2022-12-08T02:08:43;96647.28;;;0.45;74.38
75013;BME280;63567;49.956;20.130;2022-12-08T02:11:10;96648.25;;;0.44;74.23
75013;BME280;63567;49.956;20.130;2022-12-08T02:13:36;96647.00;;;0.48;72.82
75013;BME280;63567;49.956;20.130;2022-12-08T02:18:59;96653.84;;;0.58;73.12
75013;BME280;63567;49.956;20.130;2022-12-08T02:24:22;96658.34;;;0.56;72.65
75013;BME280;63567;49.956;20.130;2022-12-08T02:27:10;96648.38;;;0.52;72.29
75013;BME280;63567;49.956;20.130;2022-12-08T02:30:03;96652.50;;;0.54;73.25
75013;BME280;63567;49.956;20.130;2022-12-08T02:38:55;96660.25;;;0.45;72.84
75013;BME280;63567;49.956;20.130;2022-12-08T02:41:38;96658.34;;;0.47;73.05
75013;BME280;63567;49.956;20.130;2022-12-08T02:44:40;96659.31;;;0.55;73.11
75013;BME280;63567;49.956;20.130;2022-12-08T02:47:10;96652.50;;;0.54;72.34
75013;BME280;63567;49.956;20.130;2022-12-08T02:49:37;96660.00;;;0.57;73.30
75013;BME280;63567;49.956;20.130;2022-12-08T02:54:38;96651.38;;;0.67;71.93
75013;BME280;63567;49.956;20.130;2022-12-08T03:00:12;96656.03;;;0.63;72.72
75013;BME280;63567;49.956;20.130;2022-12-08T03:05:44;96656.56;;;0.67;72.34
75013;BME280;63567;49.956;20.130;2022-12-08T03:08:26;96660.25;;;0.64;72.79
75013;BME280;63567;49.956;20.130;2022-12-08T03:11:10;96655.75;;;0.66;72.30
75013;BME280;63567;49.956;20.130;2022-12-08T03:13:49;96657.53;;;0.66;72.49
75013;BME280;63567;49.956;20.130;2022-12-08T03:16:19;96656.31;;;0.70;73.17
75013;BME280;63567;49.956;20.130;2022-12-08T03:18:51;96648.66;;;0.68;72.74
75013;BME280;63567;49.956;20.130;2022-12-08T03:21:18;96656.84;;;0.73;72.49
75013;BME280;63567;49.956;20.130;2022-12-08T03:23:46;96656.19;;;0.81;72.48
75013;BME280;63567;49.956;20.130;2022-12-08T03:26:24;96658.66;;;0.82;72.04
75013;BME280;63567;49.956;20.130;2022-12-08T03:28:53;96652.09;;;0.78;72.77
75013;BME280;63567;49.956;20.130;2022-12-08T03:31:18;96654.41;;;0.81;72.18
75013;BME280;63567;49.956;20.130;2022-12-08T03:33:48;96649.34;;;0.80;72.78
75013;BME280;63567;49.956;20.130;2022-12-08T03:36:15;96647.44;;;0.82;71.75
75013;BME280;63567;49.956;20.130;2022-12-08T03:38:42;96645.25;;;0.68;72.37
75013;BME280;63567;49.956;20.130;2022-12-08T03:41:09;96650.44;;;0.77;73.39
75013;BME280;63567;49.956;20.130;2022-12-08T03:43:53;96643.22;;;0.81;72.15
75013;BME280;63567;49.956;20.130;2022-12-08T03:46:20;96643.34;;;0.79;72.38
75013;BME280;63567;49.956;20.130;2022-12-08T03:48:46;96644.84;;;0.72;72.76
75013;BME280;63567;49.956;20.130;2022-12-08T03:51:12;96638.69;;;0.73;73.24
75013;BME280;63567;49.956;20.130;2022-12-08T03:53:37;96649.63;;;0.77;72.32
75013;BME280;63567;49.956;20.130;2022-12-08T03:56:14;96646.75;;;0.90;72.38
75013;BME280;63567;49.956;20.130;2022-12-08T03:58:40;96645.53;;;0.84;72.52
75013;BME280;63567;49.956;20.130;2022-12-08T04:01:06;96649.47;;;0.88;71.27
75013;BME280;63567;49.956;20.130;2022-12-08T04:03:31;96643.88;;;0.93;72.01
75013;BME280;63567;49.956;20.130;2022-12-08T04:05:57;96643.06;;;0.92;72.39
75013;BME280;63567;49.956;20.130;2022-12-08T04:08:22;96650.84;;;0.92;71.92
75013;BME280;63567;49.956;20.130;2022-12-08T04:10:47;96652.34;;;0.95;72.36
75013;BME280;63567;49.956;20.130;2022-12-08T04:13:12;96647.97;;;0.95;72.07
75013;BME280;63567;49.956;20.130;2022-12-08T04:15:38;96647.97;;;0.95;72.50
75013;BME280;63567;49.956;20.130;2022-12-08T04:18:03;96636.09;;;0.93;71.98
75013;BME280;63567;49.956;20.130;2022-12-08T04:20:28;96648.94;;;0.94;71.69
75013;BME280;63567;49.956;20.130;2022-12-08T04:22:54;96648.13;;;0.94;72.36
75013;BME280;63567;49.956;20.130;2022-12-08T04:25:19;96648.66;;;0.97;71.62
75013;BME280;63567;49.956;20.130;2022-12-08T04:27:44;96652.34;;;0.95;71.39
75013;BME280;63567;49.956;20.130;2022-12-08T04:30:10;96648.38;;;0.91;72.03
75013;BME280;63567;49.956;20.130;2022-12-08T04:32:35;96647.31;;;0.84;72.44
75013;BME280;63567;49.956;20.130;2022-12-08T04:35:00;96643.19;;;0.91;72.33
75013;BME280;63567;49.956;20.130;2022-12-08T04:37:26;96645.25;;;0.87;71.30
75013;BME280;63567;49.956;20.130;2022-12-08T04:39:52;96633.53;;;0.83;71.88
75013;BME280;63567;49.956;20.130;2022-12-08T04:42:17;96639.81;;;0.80;72.94
75013;BME280;63567;49.956;20.130;2022-12-08T04:44:42;96647.03;;;0.77;72.20
75013;BME280;63567;49.956;20.130;2022-12-08T04:47:08;96640.19;;;0.76;72.69
75013;BME280;63567;49.956;20.130;2022-12-08T04:49:33;96640.78;;;0.70;72.52
75013;BME280;63567;49.956;20.130;2022-12-08T04:51:58;96636.00;;;0.65;71.94
75013;BME280;63567;49.956;20.130;2022-12-08T04:54:23;96645.00;;;0.61;72.81
75013;BME280;63567;49.956;20.130;2022-12-08T04:56:49;96638.97;;;0.60;73.21
75013;BME280;63567;49.956;20.130;2022-12-08T04:59:14;96636.09;;;0.54;73.12
75013;BME280;63567;49.956;20.130;2022-12-08T05:01:39;96639.22;;;0.48;72.95
75013;BME280;63567;49.956;20.130;2022-12-08T05:04:04;96648.66;;;0.49;74.15
75013;BME280;63567;49.956;20.130;2022-12-08T05:06:30;96641.69;;;0.49;73.80
75013;BME280;63567;49.956;20.130;2022-12-08T05:08:55;96643.75;;;0.55;73.21
75013;BME280;63567;49.956;20.130;2022-12-08T05:11:20;96646.06;;;0.58;73.40
75013;BME280;63567;49.956;20.130;2022-12-08T05:13:46;96639.13;;;0.59;73.32
75013;BME280;63567;49.956;20.130;2022-12-08T05:16:13;96642.94;;;0.65;72.63
75013;BME280;63567;49.956;20.130;2022-12-08T05:18:40;96640.34;;;0.65;73.03
75013;BME280;63567;49.956;20.130;2022-12-08T05:21:06;96640.34;;;0.65;72.96
75013;BME280;63567;49.956;20.130;2022-12-08T05:23:31;96644.44;;;0.67;72.87
75013;BME280;63567;49.956;20.130;2022-12-08T05:25:57;96633.41;;;0.65;72.89
75013;BME280;63567;49.956;20.130;2022-12-08T05:28:22;96635.56;;;0.60;73.02
75013;BME280;63567;49.956;20.130;2022-12-08T05:30:47;96643.34;;;0.60;72.97
75013;BME280;63567;49.956;20.130;2022-12-08T05:33:13;96644.16;;;0.60;73.56
75013;BME280;63567;49.956;20.130;2022-12-08T05:35:38;96641.72;;;0.59;74.32
75013;BME280;63567;49.956;20.130;2022-12-08T05:38:04;96646.34;;;0.55;73.67
75013;BME280;63567;49.956;20.130;2022-12-08T05:40:29;96637.06;;;0.53;74.10
75013;BME280;63567;49.956;20.130;2022-12-08T05:42:55;96644.97;;;0.51;74.84
75013;BME280;63567;49.956;20.130;2022-12-08T05:45:20;96640.47;;;0.53;74.76
75013;BME280;63567;49.956;20.130;2022-12-08T05:47:46;96636.09;;;0.54;74.56
75013;BME280;63567;49.956;20.130;2022-12-08T05:50:11;96640.47;;;0.53;74.32
75013;BME280;63567;49.956;20.130;2022-12-08T05:52:37;96642.53;;;0.59;74.40
75013;BME280;63567;49.956;20.130;2022-12-08T05:55:02;96645.13;;;0.59;74.66
75013;BME280;63567;49.956;20.130;2022-12-08T05:57:28;96641.28;;;0.54;74.68
75013;BME280;63567;49.956;20.130;2022-12-08T05:59:53;96639.38;;;0.56;74.50
75013;BME280;63567;49.956;20.130;2022-12-08T06:02:18;96640.34;;;0.55;74.62
75013;BME280;63567;49.956;20.130;2022-12-08T06:04:43;96650.84;;;0.53;74.60
75013;BME280;63567;49.956;20.130;2022-12-08T06:07:09;96657.53;;;0.46;75.22
75013;BME280;63567;49.956;20.130;2022-12-08T06:09:34;96657.53;;;0.46;75.47
75013;BME280;63567;49.956;20.130;2022-12-08T06:12:00;96657.66;;;0.45;75.51
75013;BME280;63567;49.956;20.130;2022-12-08T06:14:25;96671.94;;;0.39;75.33
75013;BME280;63567;49.956;20.130;2022-12-08T06:16:51;96673.47;;;0.42;75.57
75013;BME280;63567;49.956;20.130;2022-12-08T06:19:16;96673.31;;;0.43;75.50
75013;BME280;63567;49.956;20.130;2022-12-08T06:21:41;96677.00;;;0.40;75.42
75013;BME280;63567;49.956;20.130;2022-12-08T06:24:07;96685.47;;;0.43;76.03
75013;BME280;63567;49.956;20.130;2022-12-08T06:26:32;96684.53;;;0.44;75.88
75013;BME280;63567;49.956;20.130;2022-12-08T06:28:57;96689.44;;;0.47;75.84
75013;BME280;63567;49.956;20.130;2022-12-08T06:31:25;96689.31;;;0.48;76.09
75013;BME280;63567;49.956;20.130;2022-12-08T06:33:51;96678.41;;;0.54;76.20
75013;BME280;63567;49.956;20.130;2022-12-08T06:36:18;96678.13;;;0.57;75.71
75013;BME280;63567;49.956;20.130;2022-12-08T06:38:44;96675.41;;;0.59;75.45
75013;BME280;63567;49.956;20.130;2022-12-08T06:41:10;96675.81;;;0.64;75.95
75013;BME280;63567;49.956;20.130;2022-12-08T06:43:36;96682.09;;;0.61;75.61
75013;BME280;63567;49.956;20.130;2022-12-08T06:46:05;96683.19;;;0.69;75.25
75013;BME280;63567;49.956;20.130;2022-12-08T06:48:30;96690.81;;;0.70;75.72
75013;BME280;63567;49.956;20.130;2022-12-08T06:50:55;96683.75;;;0.72;75.48
75013;BME280;63567;49.956;20.130;2022-12-08T06:53:21;96689.72;;;0.73;75.33
75013;BME280;63567;49.956;20.130;2022-12-08T06:55:51;96696.97;;;0.79;74.62
75013;BME280;63567;49.956;20.130;2022-12-08T06:58:17;96696.28;;;0.77;74.95
75013;BME280;63567;49.956;20.130;2022-12-08T07:00:44;96690.97;;;0.78;75.36
75013;BME280;63567;49.956;20.130;2022-12-08T07:03:10;96687.00;;;0.84;74.82
75013;BME280;63567;49.956;20.130;2022-12-08T07:05:36;96700.94;;;0.93;73.89
75013;BME280;63567;49.956;20.130;2022-12-08T07:08:03;96690.44;;;0.94;74.48
75013;BME280;63567;49.956;20.130;2022-12-08T07:10:28;96693.56;;;0.98;73.99
75013;BME280;63567;49.956;20.130;2022-12-08T07:12:54;96696.69;;;1.01;73.57
75013;BME280;63567;49.956;20.130;2022-12-08T07:15:19;96708.44;;;1.06;73.85
75013;BME280;63567;49.956;20.130;2022-12-08T07:17:44;96702.31;;;1.07;73.42
75013;BME280;63567;49.956;20.130;2022-12-08T07:20:11;96706.28;;;1.11;73.23
75013;BME280;63567;49.956;20.130;2022-12-08T07:22:36;96707.47;;;1.16;72.70
75013;BME280;63567;49.956;20.130;2022-12-08T07:25:02;96702.16;;;1.18;72.90
75013;BME280;63567;49.956;20.130;2022-12-08T07:27:27;96706.53;;;1.17;72.99
75013;BME280;63567;49.956;20.130;2022-12-08T07:29:52;96705.31;;;1.21;72.94
75013;BME280;63567;49.956;20.130;2022-12-08T07:32:17;96706.13;;;1.22;72.57
75013;BME280;63567;49.956;20.130;2022-12-08T07:34:43;96704.72;;;1.28;72.14
75013;BME280;63567;49.956;20.130;2022-12-08T07:37:08;96709.78;;;1.29;73.39
75013;BME280;63567;49.956;20.130;2022-12-08T07:39:33;96703.94;;;1.37;72.29
75013;BME280;63567;49.956;20.130;2022-12-08T07:41:58;96710.56;;;1.49;72.39
75013;BME280;63567;49.956;20.130;2022-12-08T07:44:24;96712.63;;;1.55;72.03
75013;BME280;63567;49.956;20.130;2022-12-08T07:46:50;96703.22;;;1.54;70.92
75013;BME280;63567;49.956;20.130;2022-12-08T07:49:15;96714.66;;;1.61;71.31
75013;BME280;63567;49.956;20.130;2022-12-08T07:51:40;96712.88;;;1.62;71.35
75013;BME280;63567;49.956;20.130;2022-12-08T07:54:12;96710.81;;;1.66;70.95
75013;BME280;63567;49.956;20.130;2022-12-08T07:56:37;96714.63;;;1.71;70.86
75013;BME280;63567;49.956;20.130;2022-12-08T07:59:02;96713.25;;;1.77;70.69
75013;BME280;63567;49.956;20.130;2022-12-08T08:01:32;96722.69;;;1.78;70.21
75013;BME280;63567;49.956;20.130;2022-12-08T08:04:00;96712.56;;;1.84;70.52
75013;BME280;63567;49.956;20.130;2022-12-08T08:06:26;96720.59;;;1.91;70.18
75013;BME280;63567;49.956;20.130;2022-12-08T08:08:52;96717.03;;;1.92;70.22
75013;BME280;63567;49.956;20.130;2022-12-08T08:11:17;96712.50;;;2.04;69.28
75013;BME280;63567;49.956;20.130;2022-12-08T08:13:42;96716.56;;;2.07;69.33
75013;BME280;63567;49.956;20.130;2022-12-08T08:16:09;96714.66;;;2.09;69.45
75013;BME280;63567;49.956;20.130;2022-12-08T08:18:35;96720.38;;;2.12;69.06
75013;BME280;63567;49.956;20.130;2022-12-08T08:21:01;96712.53;;;2.22;68.54
75013;BME280;63567;49.956;20.130;2022-12-08T08:23:27;96717.69;;;2.32;68.71
75013;BME280;63567;49.956;20.130;2022-12-08T08:25:52;96717.97;;;2.29;67.51
75013;BME280;63567;49.956;20.130;2022-12-08T08:28:18;96705.22;;;2.35;67.96
75013;BME280;63567;49.956;20.130;2022-12-08T08:30:45;96713.81;;;2.36;68.15
75013;BME280;63567;49.956;20.130;2022-12-08T08:33:10;96710.97;;;2.39;67.83
75013;BME280;63567;49.956;20.130;2022-12-08T08:35:36;96716.91;;;2.49;68.16
75013;BME280;63567;49.956;20.130;2022-12-08T08:38:01;96715.56;;;2.45;67.41
75013;BME280;63567;49.956;20.130;2022-12-08T08:40:26;96712.31;;;2.43;67.35
75013;BME280;63567;49.956;20.130;2022-12-08T08:42:51;96713.22;;;2.52;67.97
75013;BME280;63567;49.956;20.130;2022-12-08T08:45:17;96718.41;;;2.52;68.22
75013;BME280;63567;49.956;20.130;2022-12-08T08:47:42;96715.44;;;2.64;68.05
75013;BME280;63567;49.956;20.130;2022-12-08T08:50:08;96716.78;;;2.68;68.03
75013;BME280;63567;49.956;20.130;2022-12-08T08:52:33;96717.53;;;2.61;68.21
75013;BME280;63567;49.956;20.130;2022-12-08T08:54:58;96714.25;;;2.59;68.25
75013;BME280;63567;49.956;20.130;2022-12-08T08:57:23;96709.06;;;2.59;67.53
75013;BME280;63567;49.956;20.130;2022-12-08T08:59:49;96711.22;;;2.63;68.13
75013;BME280;63567;49.956;20.130;2022-12-08T09:02:16;96705.94;;;2.55;67.53
75013;BME280;63567;49.956;20.130;2022-12-08T09:04:41;96705.66;;;2.58;67.90
75013;BME280;63567;49.956;20.130;2022-12-08T09:07:07;96710.25;;;2.64;67.91
75013;BME280;63567;49.956;20.130;2022-12-08T09:09:32;96704.91;;;2.84;67.95
75013;BME280;63567;49.956;20.130;2022-12-08T09:11:57;96692.72;;;3.02;66.60
75013;BME280;63567;49.956;20.130;2022-12-08T09:14:22;96691.31;;;2.90;67.50
75013;BME280;63567;49.956;20.130;2022-12-08T09:16:48;96697.72;;;2.78;67.07
75013;BME280;63567;49.956;20.130;2022-12-08T09:19:13;96681.91;;;2.71;67.71
75013;BME280;63567;49.956;20.130;2022-12-08T09:21:39;96683.97;;;2.67;67.33
75013;BME280;63567;49.956;20.130;2022-12-08T09:24:04;96698.22;;;2.63;66.59
75013;BME280;63567;49.956;20.130;2022-12-08T09:26:30;96678.44;;;2.71;66.73
75013;BME280;63567;49.956;20.130;2022-12-08T09:28:56;96678.31;;;2.72;66.34
75013;BME280;63567;49.956;20.130;2022-12-08T09:31:22;96679.66;;;2.76;66.78
75013;BME280;63567;49.956;20.130;2022-12-08T09:33:48;96677.88;;;2.77;67.08
75013;BME280;63567;49.956;20.130;2022-12-08T09:36:15;96676.59;;;2.81;66.26
75013;BME280;63567;49.956;20.130;2022-12-08T09:38:41;96673.88;;;2.82;66.95
75013;BME280;63567;49.956;20.130;2022-12-08T09:41:15;96681.34;;;2.85;66.18
75013;BME280;63567;49.956;20.130;2022-12-08T09:43:51;96674.16;;;2.79;66.83
75013;BME280;63567;49.956;20.130;2022-12-08T09:46:21;96663.75;;;2.79;66.37
75013;BME280;63567;49.956;20.130;2022-12-08T09:48:54;96666.44;;;2.87;66.74
75013;BME280;63567;49.956;20.130;2022-12-08T09:51:29;96668.22;;;2.87;66.84
75013;BME280;63567;49.956;20.130;2022-12-08T09:54:19;96671.03;;;2.94;66.66
75013;BME280;63567;49.956;20.130;2022-12-08T09:56:46;96670.50;;;2.90;65.89
75013;BME280;63567;49.956;20.130;2022-12-08T09:59:32;96666.34;;;2.97;66.27
75013;BME280;63567;49.956;20.130;2022-12-08T10:01:59;96667.97;;;2.98;65.60
75013;BME280;63567;49.956;20.130;2022-12-08T10:04:31;96663.00;;;3.05;65.98
75013;BME280;63567;49.956;20.130;2022-12-08T10:07:05;96662.41;;;2.93;65.65
75013;BME280;63567;49.956;20.130;2022-12-08T10:17:36;96648.97;;;2.80;66.67
75013;BME280;63567;49.956;20.130;2022-12-08T10:20:12;96655.94;;;2.79;66.50
75013;BME280;63567;49.956;20.130;2022-12-08T10:22:40;96651.72;;;2.78;66.24
75013;BME280;63567;49.956;20.130;2022-12-08T10:25:17;96652.00;;;2.75;66.42
75013;BME280;63567;49.956;20.130;2022-12-08T10:27:45;96649.56;;;2.74;66.38
75013;BME280;63567;49.956;20.130;2022-12-08T10:30:15;96652.44;;;2.71;66.49
75013;BME280;63567;49.956;20.130;2022-12-08T10:32:43;96645.03;;;2.76;66.40
75013;BME280;63567;49.956;20.130;2022-12-08T10:35:12;96643.69;;;2.72;66.48
75013;BME280;63567;49.956;20.130;2022-12-08T10:37:38;96641.09;;;2.72;66.56
75013;BME280;63567;49.956;20.130;2022-12-08T10:40:09;96640.78;;;2.75;67.28
75013;BME280;63567;49.956;20.130;2022-12-08T10:42:45;96645.03;;;2.76;66.61
75013;BME280;63567;49.956;20.130;2022-12-08T10:48:19;96638.78;;;2.68;66.28
75013;BME280;63567;49.956;20.130;2022-12-08T10:55:43;96636.63;;;2.64;66.96
75013;BME280;63567;49.956;20.130;2022-12-08T11:01:00;96631.19;;;2.75;66.91
75013;BME280;63567;49.956;20.130;2022-12-08T11:03:31;96628.44;;;2.77;67.44
75013;BME280;63567;49.956;20.130;2022-12-08T11:05:58;96628.22;;;2.70;67.17
75013;BME280;63567;49.956;20.130;2022-12-08T11:08:26;96619.53;;;2.79;66.90
75013;BME280;63567;49.956;20.130;2022-12-08T11:10:52;96619.91;;;2.84;67.33
75013;BME280;63567;49.956;20.130;2022-12-08T11:13:23;96619.16;;;2.92;66.72
75013;BME280;63567;49.956;20.130;2022-12-08T11:15:51;96612.22;;;3.01;66.17
75013;BME280;63567;49.956;20.130;2022-12-08T11:18:28;96610.69;;;3.16;66.08
75013;BME280;63567;49.956;20.130;2022-12-08T11:21:04;96613.22;;;3.26;65.70
75013;BME280;63567;49.956;20.130;2022-12-08T11:23:34;96614.69;;;3.28;65.94
75013;BME280;63567;49.956;20.130;2022-12-08T11:26:04;96620.72;;;3.29;65.66
75013;BME280;63567;49.956;20.130;2022-12-08T11:28:31;96616.50;;;3.28;65.40
75013;BME280;63567;49.956;20.130;2022-12-08T11:31:01;96621.22;;;3.33;66.21
75013;BME280;63567;49.956;20.130;2022-12-08T11:33:28;96616.22;;;3.39;65.37
75013;BME280;63567;49.956;20.130;2022-12-08T11:36:27;96622.75;;;3.43;65.44
75013;BME280;63567;49.956;20.130;2022-12-08T11:38:47;96618.50;;;3.42;65.78
75013;BME280;63567;49.956;20.130;2022-12-08T11:41:16;96625.38;;;3.43;65.99
75013;BME280;63567;49.956;20.130;2022-12-08T11:46:23;96616.34;;;3.64;65.67
75013;BME280;63567;49.956;20.130;2022-12-08T11:49:00;96607.94;;;3.70;65.96
75013;BME280;63567;49.956;20.130;2022-12-08T11:51:59;96608.16;;;3.85;65.49
75013;BME280;63567;49.956;20.130;2022-12-08T11:54:27;96609.00;;;3.94;65.20
75013;BME280;63567;49.956;20.130;2022-12-08T11:56:57;96611.28;;;3.88;64.52
75013;BME280;63567;49.956;20.130;2022-12-08T11:59:32;96615.84;;;3.95;64.46
75013;BME280;63567;49.956;20.130;2022-12-08T12:02:00;96619.00;;;4.06;64.81
75013;BME280;63567;49.956;20.130;2022-12-08T12:04:40;96613.63;;;4.08;64.75
75013;BME280;63567;49.956;20.130;2022-12-08T12:10:20;96616.91;;;4.18;64.67
75013;BME280;63567;49.956;20.130;2022-12-08T12:18:11;96609.88;;;4.10;64.74
75013;BME280;63567;49.956;20.130;2022-12-08T12:20:51;96607.31;;;4.19;64.53
75013;BME280;63567;49.956;20.130;2022-12-08T12:23:37;96605.38;;;4.29;64.71
75013;BME280;63567;49.956;20.130;2022-12-08T12:26:06;96602.22;;;4.09;65.08
75013;BME280;63567;49.956;20.130;2022-12-08T12:28:49;96611.03;;;4.08;65.02
75013;BME280;63567;49.956;20.130;2022-12-08T12:31:20;96610.84;;;4.01;65.17
75013;BME280;63567;49.956;20.130;2022-12-08T12:33:46;96605.16;;;4.06;65.22
75013;BME280;63567;49.956;20.130;2022-12-08T12:36:13;96605.63;;;4.09;65.31
75013;BME280;63567;49.956;20.130;2022-12-08T12:38:45;96601.53;;;3.99;65.11
75013;BME280;63567;49.956;20.130;2022-12-08T12:41:46;96602.81;;;3.95;65.45
75013;BME280;63567;49.956;20.130;2022-12-08T13:02:17;96584.59;;;4.03;65.21
75013;BME280;63567;49.956;20.130;2022-12-08T13:04:51;96579.56;;;4.09;65.28
75013;BME280;63567;49.956;20.130;2022-12-08T13:07:29;96574.53;;;4.08;64.92
75013;BME280;63567;49.956;20.130;2022-12-08T13:10:17;96572.88;;;4.07;65.20
75013;BME280;63567;49.956;20.130;2022-12-08T13:12:44;96568.50;;;4.07;64.37
75013;BME280;63567;49.956;20.130;2022-12-08T13:15:17;96572.75;;;4.08;64.77
75013;BME280;63567;49.956;20.130;2022-12-08T13:17:45;96564.41;;;4.05;64.59
75013;BME280;63567;49.956;20.130;2022-12-08T13:20:21;96575.84;;;4.12;64.70
75013;BME280;63567;49.956;20.130;2022-12-08T13:31:02;96571.22;;;3.89;65.29
75013;BME280;63567;49.956;20.130;2022-12-08T13:33:31;96575.28;;;3.84;64.94
75013;BME280;63567;49.956;20.130;2022-12-08T13:38:36;96570.31;;;3.73;65.54
75013;BME280;63567;49.956;20.130;2022-12-08T13:41:08;96565.31;;;3.79;65.83
75013;BME280;63567;49.956;20.130;2022-12-08T13:43:58;96567.25;;;3.69;65.24
75013;BME280;63567;49.956;20.130;2022-12-08T13:46:33;96562.94;;;3.60;64.89
75013;BME280;63567;49.956;20.130;2022-12-08T13:49:02;96567.53;;;3.66;65.32
75013;BME280;63567;49.956;20.130;2022-12-08T13:51:41;96558.91;;;3.65;65.29
75013;BME280;63567;49.956;20.130;2022-12-08T13:54:15;96564.28;;;3.64;65.51
75013;BME280;63567;49.956;20.130;2022-12-08T13:56:43;96566.72;;;3.65;65.36
75013;BME280;63567;49.956;20.130;2022-12-08T13:59:24;96561.59;;;3.47;65.68
75013;BME280;63567;49.956;20.130;2022-12-08T14:01:53;96569.25;;;3.49;66.04
75013;BME280;63567;49.956;20.130;2022-12-08T14:04:20;96566.16;;;3.45;65.61
75013;BME280;63567;49.956;20.130;2022-12-08T14:06:52;96568.81;;;3.62;65.52
75013;BME280;63567;49.956;20.130;2022-12-08T14:09:21;96563.59;;;3.62;65.19
75013;BME280;63567;49.956;20.130;2022-12-08T14:11:57;96564.47;;;3.70;65.71
75013;BME280;63567;49.956;20.130;2022-12-08T14:14:28;96569.00;;;3.68;66.08
75013;BME280;63567;49.956;20.130;2022-12-08T14:17:00;96566.06;;;3.63;66.05
75013;BME280;63567;49.956;20.130;2022-12-08T14:19:28;96569.47;;;3.64;65.56
75013;BME280;63567;49.956;20.130;2022-12-08T14:22:02;96566.22;;;3.62;65.97
75013;BME280;63567;49.956;20.130;2022-12-08T14:24:30;96570.13;;;3.66;66.23
75013;BME280;63567;49.956;20.130;2022-12-08T14:27:01;96574.03;;;3.62;66.78